logo
App data

Nightmare on Azathoth

Nightmare on Azathoth is a dark game, in which you might not want to find the truth. Manage your base, scavenge, collect memory fragments, and collect resources to power up your spaceship to escape this planet. Death only brings an endless time loop, that restarts everything on the 4th day.
Store | Hub | SteamDB | Site
Developer: Modesto Rabena Publisher: Divergent Game Studio
Genre: Action, Adventure, Indie
Languages: English
Tags: Adventure (35), Action (34), Indie (33), Survival (16), Survival Horror (13), Psychological (12), Simulation (10), Difficult (10), Lovecraftian (8)
Category: Single-player, Steam Trading Cards, Partial Controller Support
Release date: Oct 30, 2015
Price: $0.99
Owners: 0 .. 20,000
Followers: 885
Peak concurrent players yesterday: 1
Playtime total: 02:06 (average) 02:06 (median)

Steam Spy is still in beta, so expect major bugs.

Owners data:

Access restricted.

This feature is only available to users with special access rights. Sorry.

If you want to proceed, you need to register or log in first and then back Steam Spy on Patreon. Look for Indie or Pro pledge.

Don't forget to use the same email as on Steam Spy!

If you've recently backed Steam Spy on Patreon, please note, that it might take around 15 minutes for your access rights to sync. In most cases you'll need to re-login on Steam Spy too.

Audience in 2 weeks:

Access restricted.

This feature is only available to users with special access rights. Sorry.

If you want to proceed, you need to register or log in first and then back Steam Spy on Patreon. Look for Indie or Pro pledge.

Don't forget to use the same email as on Steam Spy!

If you've recently backed Steam Spy on Patreon, please note, that it might take around 15 minutes for your access rights to sync. In most cases you'll need to re-login on Steam Spy too.

Peak daily concurrent players:

CCU data courtesy of SteamDB. Used with permission.

Hourly concurrent players:

Followers over time

Access restricted.

This feature is only available to users with special access rights. Sorry.

If you want to proceed, you need to register or log in first and then back Steam Spy on Patreon. Look for Indie or Pro pledge.

Don't forget to use the same email as on Steam Spy!

If you've recently backed Steam Spy on Patreon, please note, that it might take around 15 minutes for your access rights to sync. In most cases you'll need to re-login on Steam Spy too.

Views for top 50 videos on YouTube for this game:

Games similar to this one:

# Game Release date
Price
Score rank
(Userscore / Metascore)
Owners
Players
Playtime (Median)
1 Charlie Murder May 12, 2017 $2.49N/A (N/A)50,000 .. 100,0008.33%00:01 (00:00)
2 METAGAL May 23, 2016 $0.99N/A (N/A)20,000 .. 50,0000%00:00 (00:00)
3 Plancon: Space Conflict Aug 8, 2016 $0.97N/A (N/A)20,000 .. 50,0000%00:00 (00:00)
4 Tokyo Babel Mar 31, 2016 $8.74N/A (N/A)0 .. 20,0000%00:00 (00:00)
5 Tank Brawl Apr 20, 2016 $2.49N/A (N/A)20,000 .. 50,0000%00:00 (00:00)
6 A-10 VR Apr 5, 2016 $4.99N/A (N/A)0 .. 20,0000%00:00 (00:00)
7 The Next World Mar 7, 2016 $12.99N/A (N/A)20,000 .. 50,0000%00:00 (00:00)
8 Westboro Apr 27, 2017 $0.51N/A (N/A)50,000 .. 100,0000%00:00 (00:00)
9 Adventure Time: Magic Man's Head Games Apr 5, 2016 $4.99N/A (N/A)50,000 .. 100,0000%00:00 (00:00)
10 Raiden Legacy - Steam Edition Dec 10, 2015 $3.99N/A (N/A)20,000 .. 50,0000%00:00 (00:00)
11 Phantaruk Aug 16, 2016 $0.54N/A (N/A/53%)20,000 .. 50,0000%00:00 (00:00)
12 Flinthook Apr 18, 2017 $7.49N/A (N/A/80%)100,000 .. 200,0000%00:00 (00:00)
13 Mighty Gunvolt Sep 29, 2015 $1.99N/A (N/A)20,000 .. 50,0000%00:00 (00:00)
14 King Lucas Dec 1, 2016 $1.24N/A (N/A)20,000 .. 50,0000%00:00 (00:00)
15 Songs for a Hero - Definitive Edition Apr 30, 2020 $11.99N/A (N/A)200,000 .. 500,0000%00:00 (00:00)
16 Umihara Kawase Nov 2, 2015 $1.99N/A (N/A)0 .. 20,0000%00:00 (00:00)
17 Airport Madness: World Edition May 28, 2015 $4.99N/A (N/A)50,000 .. 100,0000%00:00 (00:00)
18 Predator Simulator May 11, 2015 $7.99N/A (N/A)20,000 .. 50,0000%00:00 (00:00)
19 Spaceman Sparkles 2 May 20, 2015 $1.49N/A (N/A)20,000 .. 50,0000%00:00 (00:00)
20 Skyhook May 17, 2016 $0.49N/A (N/A)0 .. 20,0000%00:00 (00:00)
21 A Rose in the Twilight Apr 11, 2017 $3.99N/A (N/A)20,000 .. 50,0000%00:00 (00:00)
22 Nongünz May 19, 2017 N/AN/A (N/A)20,000 .. 50,0000%00:00 (00:00)
23 Polterheist Feb 21, 2017 $4.99N/A (N/A)200,000 .. 500,0000%00:00 (00:00)
24 Immortal Redneck Apr 25, 2017 $19.95N/A (N/A/70%)100,000 .. 200,0002.63%00:18 (00:06)
25 Davyria: Heroes of Eternity Mar 10, 2017 FreeN/A (N/A)0 .. 20,0000%00:00 (00:00)
26 2 Ninjas 1 Cup Feb 3, 2017 $0.79N/A (N/A)20,000 .. 50,0000%00:00 (00:00)
27 Putrefaction 2: Void Walker May 29, 2017 $4.99N/A (N/A)100,000 .. 200,0000%00:00 (00:00)
28 Xmas Shooting - Scramble!! Dec 16, 2016 $2.49N/A (N/A)20,000 .. 50,0000%00:00 (00:00)
29 Masked Forces Nov 23, 2016 $0.51N/A (N/A)50,000 .. 100,0000%00:00 (00:00)
30 Toukiden 2 Mar 21, 2017 $59.99N/A (N/A/73%)50,000 .. 100,0000%00:00 (00:00)
31 Xenophage: Alien Bloodsport Dec 29, 1995 N/AN/A (N/A)20,000 .. 50,0000%00:00 (00:00)
32 NightZ Feb 14, 2017 $0.99N/A (N/A)0 .. 20,0000%00:00 (00:00)
33 SPINGUN Nov 11, 2016 $0.57N/A (N/A)20,000 .. 50,0000%00:00 (00:00)
34 Disney Infinity 3.0: Gold Edition Dec 9, 2016 $8.99N/A (N/A)20,000 .. 50,0000%00:00 (00:00)
35 Aaero Apr 11, 2017 $2.99N/A (N/A)200,000 .. 500,0000%00:00 (00:00)
36 Requiem: Avenging Angel Jul 7, 2016 $6.49N/A (N/A)50,000 .. 100,0000%00:00 (00:00)
37 Brut@l Feb 9, 2017 $2.99N/A (N/A/66%)20,000 .. 50,0000%00:00 (00:00)
38 Legends of the Universe - StarCore Jul 25, 2016 $0.49N/A (N/A)50,000 .. 100,0000%00:00 (00:00)
39 Lightblade VR May 31, 2016 $3.99N/A (N/A)50,000 .. 100,0000%00:00 (00:00)
40 Project Root May 1, 2014 $1.99N/A (N/A)20,000 .. 50,0000%00:00 (00:00)
41 Red Johnson's Chronicles - 1+2 - Steam Special Edition Sep 5, 2014 $0.99N/A (N/A)20,000 .. 50,0000%00:00 (00:00)
42 Vertical Drop Heroes HD Jul 25, 2014 $6.99N/A (N/A/70%)100,000 .. 200,0000%00:00 (00:00)
43 Super Dungeon Bros Nov 1, 2016 $1.99N/A (N/A)20,000 .. 50,0000%00:00 (00:00)
44 Super Rad Raygun Nov 8, 2016 N/AN/A (N/A/64%)0 .. 20,0000%00:00 (00:00)
45 Beyond Space Remastered Edition Jun 16, 2014 N/AN/A (N/A)20,000 .. 50,0000%00:00 (00:00)
46 Scooby Doo! & Looney Tunes Cartoon Universe: Adventure Jul 16, 2014 $19.99N/A (N/A)0 .. 20,0000%00:00 (00:00)
47 QUALIA 3: Multi Agent Apr 18, 2014 $1.99N/A (N/A)20,000 .. 50,0000%00:00 (00:00)
48 Crouching Pony Hidden Dragon Jul 11, 2014 $1.99N/A (N/A)20,000 .. 50,0000%00:00 (00:00)
49 Q*bert: Rebooted Jul 1, 2014 N/AN/A (N/A)20,000 .. 50,0000%00:00 (00:00)
50 Disney Alice in Wonderland Mar 2, 2010 $5.99N/A (N/A/63%)20,000 .. 50,0000%00:00 (00:00)
51 Majestic Nights Oct 30, 2014 $4.99N/A (N/A/32%)20,000 .. 50,0000%00:00 (00:00)
52 Alone in the Dark: Illumination Jun 11, 2015 $3.99N/A (N/A)50,000 .. 100,0000%00:00 (00:00)
53 EPOCH Jun 5, 2014 $0.39N/A (N/A)50,000 .. 100,0000%00:00 (00:00)
54 Wooden Sen'SeY Dec 5, 2013 $9.99N/A (N/A)20,000 .. 50,0000%00:00 (00:00)
55 Deathtrap Dungeon Jun 25, 1998 $0.97N/A (N/A)20,000 .. 50,0000%00:00 (00:00)
56 Epigenesis Aug 1, 2014 FreeN/A (N/A)100,000 .. 200,0000%00:00 (00:00)
57 Kill to Collect Apr 6, 2016 $0.99N/A (N/A/57%)20,000 .. 50,0000%00:00 (00:00)
58 Yar's Revenge Apr 28, 2011 $4.99N/A (N/A/56%)0 .. 20,0000%00:00 (00:00)
59 I, Gladiator Apr 7, 2015 $7.99N/A (N/A)20,000 .. 50,0000%00:00 (00:00)
60 Stargunner Nov 19, 1996 FreeN/A (N/A)20,000 .. 50,0000%00:00 (00:00)
61 Terminal Velocity May 1, 1995 $6.29N/A (N/A)20,000 .. 50,0000%00:00 (00:00)
62 Word Rescue May 1, 1992 $0.99N/A (N/A)20,000 .. 50,0000%00:00 (00:00)
63 Bio Menace Aug 3, 1993 N/AN/A (N/A)0 .. 20,0000%00:00 (00:00)
64 Arctic Adventure Oct 9, 1991 N/AN/A (N/A)0 .. 20,0000%00:00 (00:00)
65 Zombie Camp: Last Survivor Apr 17, 2015 $1.99N/A (N/A)0 .. 20,0000%00:00 (00:00)
66 Caravan Sep 30, 2016 $0.59N/A (N/A)100,000 .. 200,0000%00:00 (00:00)
67 BIOS Dec 13, 2016 $2.99N/A (N/A)0 .. 20,0000%00:00 (00:00)
68 ABRACA - Imagic Games Mar 31, 2016 $14.99N/A (N/A)0 .. 20,0000%00:00 (00:00)
69 Greed: Black Border Jan 13, 2010 $0.99N/A (N/A)100,000 .. 200,0000%00:00 (00:00)
70 Disney's Chicken Little Oct 20, 2005 $2.99N/A (N/A)20,000 .. 50,0000%00:00 (00:00)
71 Vintage Year Jan 2, 2015 $3.19N/A (N/A)20,000 .. 50,0000%00:00 (00:00)
72 Disney•Pixar Finding Nemo May 11, 2003 $2.99N/A (N/A)0 .. 20,0000%00:00 (00:00)
73 Guns, Gore & Cannoli Apr 30, 2015 $3.99N/A (N/A/80%)100,000 .. 200,0000%00:00 (00:00)
74 Fabula Mortis Oct 27, 2014 $0.79N/A (N/A)20,000 .. 50,0000%00:00 (00:00)
75 Disney G-Force Jul 21, 2009 $5.99N/A (N/A/61%)0 .. 20,0000%00:00 (00:00)
76 Disney Princess: My Fairytale Adventure May 25, 2012 $5.99N/A (N/A)0 .. 20,0000%00:00 (00:00)
77 Disney Fairies: Tinker Bell's Adventure Oct 6, 2014 $5.99N/A (N/A)0 .. 20,0000%00:00 (00:00)

Tags over time:

Access restricted.

This feature is only available to users with special access rights. Sorry.

If you want to proceed, you need to register or log in first and then back Steam Spy on Patreon. Look for Indie or Pro pledge.

Don't forget to use the same email as on Steam Spy!

If you've recently backed Steam Spy on Patreon, please note, that it might take around 15 minutes for your access rights to sync. In most cases you'll need to re-login on Steam Spy too.

Owners of this game also own:

Access restricted.

This feature is only available to users with special access rights. Sorry.

If you want to proceed, you need to register or log in first and then back Steam Spy on Patreon. Look for Indie or Pro pledge.

Don't forget to use the same email as on Steam Spy!

If you've recently backed Steam Spy on Patreon, please note, that it might take around 15 minutes for your access rights to sync. In most cases you'll need to re-login on Steam Spy too.

Playtime distribution:

Access restricted.

This feature is only available to users with special access rights. Sorry.

If you want to proceed, you need to register or log in first and then back Steam Spy on Patreon. Look for Indie or Pro pledge.

Don't forget to use the same email as on Steam Spy!

If you've recently backed Steam Spy on Patreon, please note, that it might take around 15 minutes for your access rights to sync. In most cases you'll need to re-login on Steam Spy too.

Playtime (2 weeks):

Access restricted.

This feature is only available to users with special access rights. Sorry.

If you want to proceed, you need to register or log in first and then back Steam Spy on Patreon. Look for Indie or Pro pledge.

Don't forget to use the same email as on Steam Spy!

If you've recently backed Steam Spy on Patreon, please note, that it might take around 15 minutes for your access rights to sync. In most cases you'll need to re-login on Steam Spy too.

User reviews:

Login required.

Please register or log in to see this information.